Chimacum, Washington
Current Conditions -  °F | °C
As of 3:53 PM on Monday 22 Dec 2014 (Local Time) from KPAE Reporting Station
Few Clouds Few Clouds  
Wind Chill:   Ceiling: Unl
Heat Index:   Visibility: 10mi
Dew Point:   Wind: 5mph
Humidity: 71%   Direction: 100°E
Pressure: 30.37"   Gusts: NA
Location:  48.01°N, 122.77°W
Report Text: KPAE 222353Z 10004KT 10SM FEW120 09/04 A3037 RMK AO2 SLP285 T00890039 10094 20078 51001
Loading
Personal Weather Stations






























Interactive Weather Map New forecast layout! Learn more

10-Day Weather Forecast

Advertisements
Track Severe Weather on mobile